createdAt,value
2018-02-14T00:01:26.559Z,23.70
2018-02-14T00:03:52.856Z,23.08
2018-02-14T00:06:19.891Z,23.42
2018-02-14T00:08:46.934Z,21.87
2018-02-14T00:11:13.207Z,29.40
2018-02-14T00:13:39.546Z,30.27
2018-02-14T00:16:05.833Z,24.12
2018-02-14T00:18:32.125Z,29.60
2018-02-14T00:20:58.443Z,24.85
2018-02-14T00:23:24.723Z,26.52
2018-02-14T00:25:51.802Z,24.60
2018-02-14T00:28:18.850Z,30.02
2018-02-14T00:30:45.130Z,30.17
2018-02-14T00:33:11.410Z,22.90
2018-02-14T00:35:37.710Z,26.85
2018-02-14T00:38:04.023Z,25.33
2018-02-14T00:40:30.322Z,30.23
2018-02-14T00:42:56.600Z,25.40
2018-02-14T00:45:22.902Z,28.27
2018-02-14T00:47:49.226Z,28.15
2018-02-14T00:50:15.527Z,31.85
2018-02-14T00:52:42.562Z,35.53
2018-02-14T00:55:09.583Z,28.73
2018-02-14T00:57:35.969Z,34.40
2018-02-14T01:00:02.315Z,30.52
2018-02-14T01:02:28.650Z,30.77
2018-02-14T01:04:54.952Z,25.92
2018-02-14T01:07:21.279Z,31.20
2018-02-14T01:09:47.598Z,31.70
2018-02-14T01:12:14.686Z,34.28
2018-02-14T01:14:41.016Z,32.55
2018-02-14T01:17:07.363Z,30.45
2018-02-14T01:19:35.578Z,32.40
2018-02-14T01:22:02.639Z,32.42
2018-02-14T01:24:28.947Z,31.58
2018-02-14T01:26:55.975Z,32.67
2018-02-14T01:29:23.289Z,26.73
2018-02-14T01:31:49.590Z,30.20
2018-02-14T01:34:16.637Z,31.10
2018-02-14T01:36:43.656Z,29.75
2018-02-14T01:39:09.950Z,33.25
2018-02-14T01:41:36.314Z,31.55
2018-02-14T01:44:02.605Z,34.58
2018-02-14T01:46:28.878Z,39.10
2018-02-14T01:48:55.179Z,34.90
2018-02-14T01:51:21.488Z,30.30
2018-02-14T01:53:47.790Z,27.52
2018-02-14T01:56:15.803Z,25.27
2018-02-14T01:58:42.742Z,29.92
2018-02-14T02:01:09.047Z,29.02
2018-02-14T02:03:35.438Z,28.48
2018-02-14T02:06:01.739Z,22.02
2018-02-14T02:08:29.258Z,29.40
2018-02-14T02:10:56.501Z,25.52
2018-02-14T02:13:23.524Z,27.00
2018-02-14T02:15:49.836Z,23.45
2018-02-14T02:18:16.151Z,24.25
2018-02-14T02:20:43.144Z,22.75
2018-02-14T02:23:09.446Z,22.27
2018-02-14T02:25:35.762Z,23.58
2018-02-14T02:28:02.047Z,27.02
2018-02-14T02:30:29.059Z,26.23
2018-02-14T02:32:55.355Z,21.98
2018-02-14T02:35:21.635Z,25.77
2018-02-14T02:37:47.912Z,21.42
2018-02-14T02:40:26.522Z,26.60
2018-02-14T02:42:52.830Z,29.12
2018-02-14T02:45:19.966Z,27.83
2018-02-14T02:47:46.251Z,33.50
2018-02-14T02:50:12.572Z,32.90
2018-02-14T02:52:38.859Z,36.72
2018-02-14T02:55:05.910Z,28.27
2018-02-14T02:57:32.975Z,33.58
2018-02-14T03:00:00.009Z,32.10
2018-02-14T03:02:27.083Z,26.73
2018-02-14T03:04:53.359Z,30.58
2018-02-14T03:07:19.670Z,25.77
2018-02-14T03:09:45.982Z,25.85
2018-02-14T03:12:12.285Z,32.65
2018-02-14T03:14:39.311Z,28.70
2018-02-14T03:17:05.614Z,21.10
2018-02-14T03:19:31.971Z,26.80
2018-02-14T03:21:58.278Z,29.12
2018-02-14T03:24:24.604Z,28.08
2018-02-14T03:26:50.903Z,24.85
2018-02-14T03:29:17.204Z,22.83
2018-02-14T03:31:43.480Z,28.08
2018-02-14T03:34:09.754Z,26.00
2018-02-14T03:36:36.042Z,25.75
2018-02-14T03:39:02.486Z,24.85
2018-02-14T03:41:28.787Z,18.50
2018-02-14T03:43:55.107Z,21.77
2018-02-14T03:46:22.182Z,23.00
2018-02-14T03:48:48.506Z,18.58
2018-02-14T03:51:14.789Z,22.90
2018-02-14T03:53:41.075Z,20.50
2018-02-14T03:56:08.158Z,22.83
2018-02-14T03:58:34.486Z,17.50
2018-02-14T04:01:00.826Z,18.27
2018-02-14T04:03:27.119Z,20.42
2018-02-14T04:05:53.418Z,21.60
2018-02-14T04:08:19.719Z,20.25
2018-02-14T04:10:46.842Z,17.45
2018-02-14T04:13:13.898Z,14.90
2018-02-14T04:15:40.196Z,17.37
2018-02-14T04:18:07.230Z,18.20
2018-02-14T04:20:33.531Z,19.95
2018-02-14T04:23:00.592Z,19.70
2018-02-14T04:25:27.614Z,20.20
2018-02-14T04:27:53.938Z,15.10
2018-02-14T04:30:20.274Z,17.50
2018-02-14T04:32:47.260Z,14.60
2018-02-14T04:35:15.430Z,16.15
2018-02-14T04:37:42.479Z,15.70
2018-02-14T04:40:08.775Z,17.67
2018-02-14T04:42:35.083Z,15.05
2018-02-14T04:45:01.356Z,17.00
2018-02-14T04:47:28.379Z,16.92
2018-02-14T04:49:54.669Z,15.82
2018-02-14T04:52:20.990Z,13.05
2018-02-14T04:54:47.282Z,12.15
2018-02-14T04:57:13.586Z,14.40
2018-02-14T04:59:39.859Z,13.95
2018-02-14T05:02:06.878Z,16.65
2018-02-14T05:04:33.164Z,11.90
2018-02-14T05:06:59.434Z,12.05
2018-02-14T05:09:27.405Z,14.02
2018-02-14T05:11:53.746Z,14.05
2018-02-14T05:14:20.894Z,12.85
2018-02-14T05:16:48.508Z,10.88
2018-02-14T05:19:14.815Z,10.35
2018-02-14T05:21:41.111Z,9.50
2018-02-14T05:24:07.415Z,13.93
2018-02-14T05:26:34.004Z,11.80
2018-02-14T05:29:01.026Z,9.60
2018-02-14T05:31:27.346Z,13.50
2018-02-14T05:33:53.637Z,13.23
2018-02-14T05:36:19.907Z,8.90
2018-02-14T05:38:47.233Z,9.45
2018-02-14T05:41:13.530Z,8.98
2018-02-14T05:43:39.835Z,11.12
2018-02-14T05:46:06.104Z,8.48
2018-02-14T05:48:32.402Z,8.27
2018-02-14T05:50:59.419Z,9.02
2018-02-14T05:53:25.695Z,11.77
2018-02-14T05:55:52.699Z,11.32
2018-02-14T05:58:18.967Z,10.82
2018-02-14T06:00:46.016Z,8.95
2018-02-14T06:03:13.090Z,14.20
2018-02-14T06:05:39.390Z,9.80
2018-02-14T06:08:06.502Z,9.25
2018-02-14T06:10:32.785Z,12.93
2018-02-14T06:12:59.059Z,9.50
2018-02-14T06:15:25.366Z,10.02
2018-02-14T06:17:51.666Z,8.90
2018-02-14T06:20:18.814Z,7.47
2018-02-14T06:22:46.105Z,7.20
2018-02-14T06:25:12.387Z,9.50
2018-02-14T06:27:39.421Z,9.07
2018-02-14T06:30:05.688Z,8.60
2018-02-14T06:32:31.959Z,10.80
2018-02-14T06:34:58.274Z,8.95
2018-02-14T06:37:24.566Z,7.95
2018-02-14T06:39:52.631Z,6.50
2018-02-14T06:42:19.682Z,11.45
2018-02-14T06:44:47.295Z,12.13
2018-02-14T06:47:13.575Z,6.82
2018-02-14T06:49:39.887Z,10.60
2018-02-14T06:52:06.182Z,6.05
2018-02-14T06:54:32.511Z,7.32
2018-02-14T06:56:58.791Z,9.35
2018-02-14T06:59:25.854Z,6.62
2018-02-14T07:01:52.143Z,14.20
2018-02-14T07:04:18.506Z,7.90
2018-02-14T07:06:45.517Z,8.38
2018-02-14T07:09:11.819Z,7.28
2018-02-14T07:11:38.137Z,6.72
2018-02-14T07:14:05.419Z,8.85
2018-02-14T07:16:31.735Z,8.38
2018-02-14T07:18:58.041Z,8.75
2018-02-14T07:21:24.361Z,7.78
2018-02-14T07:23:51.374Z,5.47
2018-02-14T07:26:17.650Z,7.93
2018-02-14T07:28:43.969Z,8.30
2018-02-14T07:31:10.254Z,6.90
2018-02-14T07:33:36.552Z,14.20
2018-02-14T07:36:02.848Z,9.98
2018-02-14T07:38:29.884Z,8.80
2018-02-14T07:40:57.012Z,13.82
2018-02-14T07:43:23.295Z,10.13
2018-02-14T07:45:50.332Z,9.15
2018-02-14T07:48:17.358Z,9.30
2018-02-14T07:50:43.634Z,11.20
2018-02-14T07:53:09.918Z,10.98
2018-02-14T07:55:36.955Z,11.95
2018-02-14T07:58:04.004Z,11.00
2018-02-14T08:00:30.284Z,9.65
2018-02-14T08:02:56.586Z,12.93
2018-02-14T08:05:23.618Z,14.52
2018-02-14T08:07:50.658Z,14.00
2018-02-14T08:10:16.930Z,14.87
2018-02-14T08:12:43.218Z,10.60
2018-02-14T08:15:09.526Z,12.95
2018-02-14T08:17:35.805Z,12.95
2018-02-14T08:20:02.858Z,15.68
2018-02-14T08:22:29.135Z,14.18
2018-02-14T08:24:55.414Z,10.35
2018-02-14T08:27:22.443Z,16.65
2018-02-14T08:29:49.466Z,11.18
2018-02-14T08:32:15.779Z,13.20
2018-02-14T08:34:42.050Z,11.20
2018-02-14T08:37:09.063Z,16.02
2018-02-14T08:39:35.681Z,15.60
2018-02-14T08:42:02.813Z,7.15
2018-02-14T08:44:29.118Z,12.90
2018-02-14T08:46:56.156Z,9.25
2018-02-14T08:49:22.438Z,9.45
2018-02-14T08:51:48.743Z,9.25
2018-02-14T08:54:15.036Z,6.82
2018-02-14T08:56:41.375Z,6.15
2018-02-14T08:59:07.666Z,6.18
2018-02-14T09:01:33.988Z,6.12
2018-02-14T09:04:00.288Z,5.80
2018-02-14T09:06:27.323Z,10.40
2018-02-14T09:08:53.656Z,5.95
2018-02-14T09:11:20.690Z,6.50
2018-02-14T09:13:47.019Z,5.47
2018-02-14T09:16:13.322Z,7.70
2018-02-14T09:18:39.632Z,6.28
2018-02-14T09:21:05.919Z,7.72
2018-02-14T09:23:32.946Z,6.12
2018-02-14T09:25:59.253Z,6.75
2018-02-14T09:28:25.550Z,7.07
2018-02-14T09:30:51.874Z,7.53
2018-02-14T09:33:19.022Z,8.38
2018-02-14T09:35:46.054Z,11.23
2018-02-14T09:38:13.108Z,4.62
2018-02-14T09:40:40.147Z,7.20
2018-02-14T09:43:07.216Z,5.28
2018-02-14T09:45:33.534Z,6.78
2018-02-14T09:48:00.559Z,7.47
2018-02-14T09:50:26.862Z,6.78
2018-02-14T09:52:53.177Z,4.53
2018-02-14T09:55:19.482Z,5.50
2018-02-14T09:57:46.510Z,4.70
2018-02-14T10:00:14.584Z,4.50
2018-02-14T10:02:40.846Z,5.37
2018-02-14T10:05:07.127Z,5.97
2018-02-14T10:07:33.398Z,4.55
2018-02-14T10:10:00.699Z,4.93
2018-02-14T10:12:27.038Z,5.45
2018-02-14T10:14:53.325Z,4.65
2018-02-14T10:17:19.655Z,4.97
2018-02-14T10:19:45.948Z,7.60
2018-02-14T10:22:12.967Z,5.40
2018-02-14T10:24:39.266Z,4.57
2018-02-14T10:27:05.543Z,6.03
2018-02-14T10:29:31.858Z,5.12
2018-02-14T10:31:58.153Z,4.72
2018-02-14T10:34:24.443Z,3.90
2018-02-14T10:36:51.482Z,4.10
2018-02-14T10:39:17.759Z,4.10
2018-02-14T10:41:44.055Z,3.28
2018-02-14T10:44:12.121Z,7.45
2018-02-14T10:46:39.182Z,3.70
2018-02-14T10:49:06.196Z,3.90
2018-02-14T10:51:32.474Z,4.20
2018-02-14T10:53:58.750Z,3.70
2018-02-14T10:56:25.039Z,3.67
2018-02-14T10:58:51.832Z,4.55
2018-02-14T11:01:25.162Z,3.75
2018-02-14T11:03:52.209Z,3.78
2018-02-14T11:06:26.400Z,3.90
2018-02-14T11:08:52.703Z,3.50
2018-02-14T11:11:18.999Z,4.95
2018-02-14T11:13:45.293Z,4.05
2018-02-14T11:16:12.307Z,3.55
2018-02-14T11:18:38.585Z,3.58
2018-02-14T11:21:05.628Z,5.25
2018-02-14T11:23:32.641Z,3.33
2018-02-14T11:25:58.959Z,7.12
2018-02-14T11:28:25.226Z,3.12
2018-02-14T11:30:52.243Z,3.65
2018-02-14T11:33:18.587Z,3.87
2018-02-14T11:35:44.867Z,3.37
2018-02-14T11:38:11.143Z,6.57
2018-02-14T11:40:37.442Z,4.68
2018-02-14T11:43:03.738Z,3.15
2018-02-14T11:45:30.786Z,3.33
2018-02-14T11:47:57.805Z,5.90
2018-02-14T11:50:24.110Z,3.80
2018-02-14T11:52:50.394Z,3.22
2018-02-14T11:55:17.418Z,2.72
2018-02-14T11:57:43.719Z,2.80
2018-02-14T12:00:10.010Z,3.90
2018-02-14T12:02:36.329Z,3.20
2018-02-14T12:05:03.387Z,3.40
2018-02-14T12:07:29.679Z,3.25
2018-02-14T12:09:55.973Z,4.68
2018-02-14T12:12:22.247Z,4.80
2018-02-14T12:14:48.534Z,4.75
2018-02-14T12:17:14.818Z,4.15
2018-02-14T12:19:41.862Z,3.75
2018-02-14T12:22:08.882Z,4.90
2018-02-14T12:24:35.155Z,3.58
2018-02-14T12:27:02.191Z,5.70
2018-02-14T12:29:30.251Z,5.50
2018-02-14T12:31:57.286Z,7.30
2018-02-14T12:34:23.577Z,3.55
2018-02-14T12:36:49.886Z,4.43
2018-02-14T12:39:16.172Z,4.10
2018-02-14T12:41:42.451Z,5.12
2018-02-14T12:44:08.736Z,5.90
2018-02-14T12:46:35.020Z,4.00
2018-02-14T12:49:01.324Z,4.85
2018-02-14T12:51:28.356Z,4.93
2018-02-14T12:53:55.403Z,5.90
2018-02-14T12:56:22.414Z,3.85
2018-02-14T12:58:48.713Z,5.37
2018-02-14T13:01:16.039Z,4.55
2018-02-14T13:03:43.085Z,4.37
2018-02-14T13:06:10.123Z,4.90
2018-02-14T13:08:37.435Z,5.00
2018-02-14T13:11:03.755Z,5.47
2018-02-14T13:13:30.039Z,6.27
2018-02-14T13:15:56.330Z,7.87
2018-02-14T13:18:22.622Z,5.47
2018-02-14T13:20:48.923Z,5.00
2018-02-14T13:23:15.250Z,5.30
2018-02-14T13:25:41.537Z,10.80
2018-02-14T13:28:07.857Z,6.43
2018-02-14T13:30:34.139Z,3.72
2018-02-14T13:33:00.442Z,4.47
2018-02-14T13:35:26.747Z,6.90
2018-02-14T13:37:53.051Z,10.93
2018-02-14T13:40:20.106Z,4.10
2018-02-14T13:42:48.056Z,6.47
2018-02-14T13:45:14.351Z,4.07
2018-02-14T13:47:40.643Z,5.17
2018-02-14T13:50:06.960Z,5.37
2018-02-14T13:52:33.298Z,5.50
2018-02-14T13:55:00.342Z,6.10
2018-02-14T13:57:27.400Z,7.17
2018-02-14T13:59:53.686Z,6.00
2018-02-14T14:02:19.994Z,5.40
2018-02-14T14:04:46.292Z,5.80
2018-02-14T14:07:12.606Z,4.60
2018-02-14T14:09:39.627Z,5.40
2018-02-14T14:12:05.907Z,6.13
2018-02-14T14:14:33.269Z,7.53
2018-02-14T14:17:00.571Z,4.80
2018-02-14T14:19:26.880Z,5.80
2018-02-14T14:21:53.167Z,4.83
2018-02-14T14:24:19.491Z,4.27
2018-02-14T14:26:46.511Z,4.87
2018-02-14T14:29:12.798Z,5.40
2018-02-14T14:31:39.099Z,7.77
2018-02-14T14:34:05.386Z,6.13
2018-02-14T14:36:31.693Z,4.73
2018-02-14T14:38:57.992Z,5.07
2018-02-14T14:41:24.276Z,6.00
2018-02-14T14:43:50.588Z,7.73
2018-02-14T14:46:16.910Z,5.50
2018-02-14T14:48:43.215Z,5.37
2018-02-14T14:51:09.494Z,6.43
2018-02-14T14:53:35.771Z,5.87
2018-02-14T14:56:02.083Z,6.50
2018-02-14T14:58:29.138Z,6.70
2018-02-14T15:00:56.158Z,6.20
2018-02-14T15:03:23.479Z,6.87
2018-02-14T15:05:49.754Z,7.03
2018-02-14T15:08:16.042Z,8.00
2018-02-14T15:10:42.351Z,6.87
2018-02-14T15:13:08.684Z,7.70
2018-02-14T15:15:34.959Z,7.50
2018-02-14T15:18:01.267Z,6.97
2018-02-14T15:20:28.290Z,9.20
2018-02-14T15:22:54.604Z,9.50
2018-02-14T15:25:20.905Z,9.53
2018-02-14T15:27:47.207Z,9.47
2018-02-14T15:30:13.486Z,9.00
2018-02-14T15:32:39.778Z,9.33
2018-02-14T15:35:06.471Z,13.00
2018-02-14T15:37:32.762Z,11.63
2018-02-14T15:39:59.106Z,9.00
2018-02-14T15:42:28.186Z,9.53
2018-02-14T15:44:55.511Z,9.60
2018-02-14T15:47:21.842Z,10.13
2018-02-14T15:49:48.862Z,11.05
2018-02-14T15:52:15.166Z,12.15
2018-02-14T15:54:41.458Z,11.32
2018-02-14T15:57:07.765Z,11.00
2018-02-14T15:59:34.063Z,11.12
2018-02-14T16:02:00.350Z,14.90
2018-02-14T16:04:26.803Z,11.55
2018-02-14T16:06:53.116Z,12.98
2018-02-14T16:09:20.147Z,10.50
2018-02-14T16:11:46.438Z,13.55
2018-02-14T16:14:12.755Z,11.30
2018-02-14T16:16:39.047Z,12.07
2018-02-14T16:19:06.078Z,11.95
2018-02-14T16:21:32.358Z,14.25
2018-02-14T16:24:01.679Z,11.95
2018-02-14T16:26:27.970Z,11.93
2018-02-14T16:28:55.991Z,12.52
2018-02-14T16:31:22.268Z,14.55
2018-02-14T16:33:49.017Z,11.07
2018-02-14T16:36:15.320Z,13.05
2018-02-14T16:38:41.630Z,11.93
2018-02-14T16:41:08.662Z,13.73
2018-02-14T16:43:34.963Z,12.50
2018-02-14T16:46:01.244Z,11.52
2018-02-14T16:48:27.540Z,15.45
2018-02-14T16:50:54.580Z,13.73
2018-02-14T16:53:20.852Z,9.35
2018-02-14T16:55:47.129Z,13.23
2018-02-14T16:58:14.231Z,17.92
2018-02-14T17:00:41.913Z,14.77
2018-02-14T17:03:08.364Z,12.48
2018-02-14T17:05:34.673Z,11.50
2018-02-14T17:08:00.990Z,18.87
2018-02-14T17:10:27.274Z,29.52
2018-02-14T17:12:54.912Z,19.10
2018-02-14T17:15:21.214Z,16.15
2018-02-14T17:17:47.571Z,16.58
2018-02-14T17:20:13.895Z,24.08
2018-02-14T17:22:40.228Z,15.82
2018-02-14T17:25:06.499Z,20.75
2018-02-14T17:27:33.542Z,16.67
2018-02-14T17:30:01.346Z,19.10
2018-02-14T17:32:27.622Z,14.00
2018-02-14T17:34:53.921Z,16.37
2018-02-14T17:37:20.222Z,19.70
2018-02-14T17:39:47.271Z,17.20
2018-02-14T17:42:13.582Z,21.55
2018-02-14T17:44:39.875Z,16.10
2018-02-14T17:47:06.151Z,18.83
2018-02-14T17:49:33.198Z,21.60
2018-02-14T17:52:00.233Z,21.92
2018-02-14T17:54:26.535Z,20.17
2018-02-14T17:56:52.911Z,21.20
2018-02-14T17:59:19.975Z,19.75
2018-02-14T18:01:46.994Z,24.15
2018-02-14T18:06:45.998Z,20.70
2018-02-14T18:09:12.302Z,23.05
2018-02-14T18:11:38.571Z,22.73
2018-02-14T18:14:04.866Z,21.62
2018-02-14T18:16:31.146Z,24.35
2018-02-14T18:18:58.180Z,22.37
2018-02-14T18:21:25.203Z,26.77
2018-02-14T18:23:51.478Z,20.30
2018-02-14T18:26:17.824Z,22.60
2018-02-14T18:28:44.098Z,21.67
2018-02-14T18:31:10.446Z,22.10
2018-02-14T18:33:36.719Z,24.70
2018-02-14T18:36:03.003Z,27.42
2018-02-14T18:38:29.311Z,26.65
2018-02-14T18:40:55.644Z,30.58
2018-02-14T18:43:21.924Z,29.25
2018-02-14T18:45:48.980Z,31.17
2018-02-14T18:48:16.016Z,59.45
2018-02-14T18:50:43.060Z,43.90
2018-02-14T18:53:10.090Z,39.58
2018-02-14T18:55:36.397Z,30.98
2018-02-14T18:58:02.694Z,34.80
2018-02-14T19:00:28.992Z,26.62
2018-02-14T19:02:56.082Z,28.55
2018-02-14T19:05:22.370Z,29.23
2018-02-14T19:07:49.404Z,25.90
2018-02-14T19:10:15.779Z,35.92
2018-02-14T19:12:42.087Z,30.15
2018-02-14T19:15:09.130Z,28.85
2018-02-14T19:17:36.158Z,28.52
2018-02-14T19:20:02.504Z,31.67
2018-02-14T19:22:28.783Z,25.20
2018-02-14T19:24:55.202Z,24.08
2018-02-14T19:27:22.250Z,26.77
2018-02-14T19:29:48.553Z,33.30
2018-02-14T19:32:15.627Z,31.55
2018-02-14T19:34:41.910Z,32.42
2018-02-14T19:37:08.197Z,28.42
2018-02-14T19:39:34.512Z,29.25
2018-02-14T19:42:01.538Z,24.75
2018-02-14T19:44:27.841Z,24.77
2018-02-14T19:46:54.176Z,31.23
2018-02-14T19:49:20.523Z,24.85
2018-02-14T19:51:46.828Z,24.73
2018-02-14T19:54:14.146Z,25.17
2018-02-14T19:56:41.190Z,29.83
2018-02-14T19:59:08.231Z,23.00
2018-02-14T20:01:35.529Z,25.98
2018-02-14T20:04:01.840Z,30.08
2018-02-14T20:06:28.866Z,31.77
2018-02-14T20:08:55.154Z,27.02
2018-02-14T20:11:21.437Z,22.10
2018-02-14T20:13:48.564Z,32.20
2018-02-14T20:16:14.991Z,28.87
2018-02-14T20:18:41.294Z,29.63
2018-02-14T20:21:07.626Z,27.65
2018-02-14T20:23:33.915Z,25.92
2018-02-14T20:26:00.242Z,26.62
2018-02-14T20:28:26.548Z,23.55
2018-02-14T20:30:52.851Z,26.15
2018-02-14T20:33:20.158Z,20.52
2018-02-14T20:35:46.466Z,20.67
2018-02-14T20:38:12.750Z,25.45
2018-02-14T20:40:39.778Z,24.42
2018-02-14T20:43:06.071Z,23.38
2018-02-14T20:45:32.375Z,23.45
2018-02-14T20:47:58.651Z,28.20
2018-02-14T20:50:24.931Z,32.42
2018-02-14T20:52:51.240Z,30.55
2018-02-14T20:55:18.295Z,24.80
2018-02-14T20:57:45.319Z,26.70
2018-02-14T21:00:12.362Z,24.23
2018-02-14T21:02:38.630Z,27.67
2018-02-14T21:05:05.695Z,26.60
2018-02-14T21:07:32.001Z,26.77
2018-02-14T21:09:59.049Z,26.65
2018-02-14T21:12:26.070Z,24.05
2018-02-14T21:14:52.379Z,26.17
2018-02-14T21:17:18.906Z,25.37
2018-02-14T21:19:45.182Z,25.60
2018-02-14T21:22:12.063Z,21.02
2018-02-14T21:24:38.345Z,28.25
2018-02-14T21:27:04.631Z,34.40
2018-02-14T21:29:32.639Z,30.40
2018-02-14T21:31:58.915Z,28.20
2018-02-14T21:34:25.355Z,25.10
2018-02-14T21:36:52.292Z,21.33
2018-02-14T21:39:19.309Z,23.45
2018-02-14T21:41:46.360Z,23.20
2018-02-14T21:44:12.654Z,22.33
2018-02-14T21:46:38.946Z,25.12
2018-02-14T21:49:06.016Z,23.40
2018-02-14T21:51:32.285Z,19.65
2018-02-14T21:53:58.606Z,20.15
2018-02-14T21:56:24.879Z,20.67
2018-02-14T21:58:51.206Z,23.38
2018-02-14T22:01:17.484Z,23.95
2018-02-14T22:03:43.767Z,24.67
2018-02-14T22:06:10.171Z,22.15
2018-02-14T22:08:36.443Z,21.98
2018-02-14T22:11:02.711Z,24.15
2018-02-14T22:13:29.030Z,22.77
2018-02-14T22:15:55.307Z,23.17
2018-02-14T22:18:21.669Z,21.35
2018-02-14T22:20:47.950Z,21.20
2018-02-14T22:23:14.979Z,23.12
2018-02-14T22:25:41.262Z,20.75
2018-02-14T22:28:07.539Z,25.35
2018-02-14T22:30:33.851Z,21.35
2018-02-14T22:33:01.895Z,25.33
2018-02-14T22:35:28.192Z,22.40
2018-02-14T22:37:54.467Z,21.90
2018-02-14T22:40:21.494Z,21.87
2018-02-14T22:42:47.794Z,25.25
2018-02-14T22:45:14.086Z,24.58
2018-02-14T22:47:41.113Z,20.60
2018-02-14T22:50:07.392Z,24.12
2018-02-14T22:52:33.695Z,25.10
2018-02-14T22:55:01.750Z,20.48
2018-02-14T22:57:28.819Z,21.90
2018-02-14T22:59:55.102Z,23.90
2018-02-14T23:02:21.401Z,26.12
2018-02-14T23:04:47.683Z,20.52
2018-02-14T23:07:14.742Z,28.70
2018-02-14T23:09:41.779Z,24.00
2018-02-14T23:12:08.052Z,18.70
2018-02-14T23:14:34.322Z,23.35
2018-02-14T23:17:00.606Z,22.60
2018-02-14T23:19:26.950Z,23.12
2018-02-14T23:21:53.255Z,25.60
2018-02-14T23:24:19.674Z,23.27
2018-02-14T23:26:48.714Z,26.87
2018-02-14T23:29:14.982Z,32.80
2018-02-14T23:31:41.275Z,24.37
2018-02-14T23:34:07.568Z,26.98
2018-02-14T23:36:35.626Z,29.27
2018-02-14T23:39:01.947Z,27.70
2018-02-14T23:41:28.982Z,30.30
2018-02-14T23:43:55.262Z,26.65
2018-02-14T23:46:21.572Z,28.48
2018-02-14T23:48:47.858Z,25.65
2018-02-14T23:51:14.146Z,27.30
2018-02-14T23:53:41.179Z,22.87
2018-02-14T23:56:08.270Z,21.00
2018-02-14T23:58:34.623Z,24.92
